Time;durP1;ratioP1;P1;durP2;ratioP2;P2;SDS_P1;SDS_P2;PMS_P1;PMS_P2;Temp;Humidity;BMP_temperature;BMP_pressure;BME280_temperature;BME280_humidity;BME280_pressure;Samples;Min_cycle;Max_cycle;Signal;HPM_P1;HPM_P2
2022/01/03 00:01:07;;;;;;;12.40;1.70;;;;;;;;;;5041159;28;20563;-68
2022/01/03 00:03:33;;;;;;;12.25;1.67;;;;;;;;;;5043337;28;20198;-69
2022/01/03 00:05:58;;;;;;;13.55;2.10;;;;;;;;;;5036001;28;20239;-68
2022/01/03 00:08:24;;;;;;;13.02;1.75;;;;;;;;;;5045537;28;20247;-68
2022/01/03 00:10:51;;;;;;;7.32;1.35;;;;;;;;;;5043785;28;20629;-69
2022/01/03 00:13:20;;;;;;;10.73;1.73;;;;;;;;;;5046256;28;20194;-68
2022/01/03 00:15:45;;;;;;;13.32;1.73;;;;;;;;;;5044821;28;20213;-68
2022/01/03 00:18:11;;;;;;;14.40;1.52;;;;;;;;;;5040525;28;20177;-67
2022/01/03 00:20:38;;;;;;;12.45;1.70;;;;;;;;;;5048126;28;20635;-67
2022/01/03 00:23:06;;;;;;;15.35;2.20;;;;;;;;;;5043911;28;20193;-68
2022/01/03 00:25:36;;;;;;;9.43;2.03;;;;;;;;;;5048828;28;20191;-67
2022/01/03 00:28:10;;;;;;;12.55;1.38;;;;;;;;;;5042637;28;20537;-68
2022/01/03 00:30:39;;;;;;;12.00;1.58;;;;;;;;;;5042454;28;20212;-68
2022/01/03 00:33:06;;;;;;;10.80;1.80;;;;;;;;;;5036557;28;20189;-68
2022/01/03 00:35:34;;;;;;;15.10;1.65;;;;;;;;;;5043133;28;20214;-69
2022/01/03 00:38:00;;;;;;;6.97;1.58;;;;;;;;;;5039763;28;20723;-68
2022/01/03 00:40:27;;;;;;;18.52;2.15;;;;;;;;;;5044631;28;20197;-68
2022/01/03 00:42:52;;;;;;;17.38;1.83;;;;;;;;;;5047538;28;20592;-68
2022/01/03 00:45:18;;;;;;;12.48;2.03;;;;;;;;;;5043039;28;20177;-67
2022/01/03 00:47:47;;;;;;;11.32;1.85;;;;;;;;;;5046275;28;20185;-68
2022/01/03 00:50:18;;;;;;;18.95;1.90;;;;;;;;;;5044718;28;20189;-68
2022/01/03 00:52:45;;;;;;;9.05;1.50;;;;;;;;;;5047848;28;20189;-67
2022/01/03 00:55:11;;;;;;;18.15;2.05;;;;;;;;;;5038968;28;20233;-68
2022/01/03 00:57:46;;;;;;;12.02;2.03;;;;;;;;;;5046064;28;20185;-68
2022/01/03 01:00:12;;;;;;;15.10;1.85;;;;;;;;;;5040357;28;20220;-68
2022/01/03 01:03:02;;;;;;;13.23;2.50;;;;;;;;;;5043606;28;20303;-68
2022/01/03 01:05:28;;;;;;;15.90;2.15;;;;;;;;;;5038706;28;20212;-68
2022/01/03 01:07:58;;;;;;;10.63;1.85;;;;;;;;;;5045058;28;20190;-68
2022/01/03 01:10:32;;;;;;;16.80;1.83;;;;;;;;;;5044971;28;20190;-68
2022/01/03 01:12:58;;;;;;;14.55;1.67;;;;;;;;;;5043903;28;20182;-67
2022/01/03 01:15:27;;;;;;;15.43;2.00;;;;;;;;;;5035503;28;20205;-68
2022/01/03 01:17:53;;;;;;;15.45;2.90;;;;;;;;;;5045472;28;20235;-67
2022/01/03 01:20:20;;;;;;;12.27;2.10;;;;;;;;;;5042468;28;20537;-68
2022/01/03 01:22:46;;;;;;;15.40;2.55;;;;;;;;;;5042111;28;20620;-68
2022/01/03 01:27:50;;;;;;;13.25;2.00;;;;;;;;;;5039608;28;20402;-68
2022/01/03 01:30:21;;;;;;;13.63;2.35;;;;;;;;;;5041987;28;20212;-68
2022/01/03 01:32:50;;;;;;;16.67;2.40;;;;;;;;;;5040200;28;20215;-68
2022/01/03 01:35:22;;;;;;;17.48;2.40;;;;;;;;;;5042381;28;20260;-68
2022/01/03 01:37:52;;;;;;;11.82;2.50;;;;;;;;;;5046741;28;20245;-68
2022/01/03 01:40:17;;;;;;;11.98;2.00;;;;;;;;;;5034677;28;20273;-68
2022/01/03 01:42:45;;;;;;;14.88;2.20;;;;;;;;;;5041224;28;20641;-68
2022/01/03 01:45:12;;;;;;;11.43;1.75;;;;;;;;;;5035758;28;20548;-68
2022/01/03 01:47:39;;;;;;;13.23;2.22;;;;;;;;;;5041642;28;20262;-68
2022/01/03 01:50:07;;;;;;;15.63;2.95;;;;;;;;;;5035602;28;20205;-67
2022/01/03 01:52:35;;;;;;;11.48;2.00;;;;;;;;;;5045122;28;20185;-68
2022/01/03 01:55:12;;;;;;;13.20;2.03;;;;;;;;;;5035744;28;20634;-68
2022/01/03 01:58:13;;;;;;;13.68;1.98;;;;;;;;;;5043694;28;20204;-68
2022/01/03 02:00:44;;;;;;;14.93;2.33;;;;;;;;;;5037932;28;20195;-68
2022/01/03 02:03:18;;;;;;;14.95;2.58;;;;;;;;;;5039197;28;20204;-67
2022/01/03 02:05:53;;;;;;;14.75;2.85;;;;;;;;;;5041636;28;20180;-67
2022/01/03 02:08:27;;;;;;;12.35;2.10;;;;;;;;;;5041471;28;20185;-67
2022/01/03 02:11:02;;;;;;;17.63;2.17;;;;;;;;;;5040243;28;20722;-68
2022/01/03 02:13:28;;;;;;;17.00;2.40;;;;;;;;;;5036717;28;20295;-68
2022/01/03 02:16:03;;;;;;;21.85;2.45;;;;;;;;;;5045486;28;20204;-68
2022/01/03 02:18:29;;;;;;;18.83;2.72;;;;;;;;;;5040808;28;20181;-68
2022/01/03 02:20:55;;;;;;;18.38;3.90;;;;;;;;;;5037864;28;20189;-68
2022/01/03 02:23:20;;;;;;;21.42;2.70;;;;;;;;;;5043415;28;20230;-68
2022/01/03 02:25:46;;;;;;;18.55;2.75;;;;;;;;;;5039132;28;20178;-68
2022/01/03 02:28:12;;;;;;;19.13;3.72;;;;;;;;;;5038791;28;20185;-68
2022/01/03 02:30:37;;;;;;;19.58;2.75;;;;;;;;;;5037946;28;20286;-68
2022/01/03 02:33:03;;;;;;;16.98;3.10;;;;;;;;;;5041801;28;20275;-68
2022/01/03 02:35:29;;;;;;;17.98;2.67;;;;;;;;;;5040526;28;20209;-68
2022/01/03 02:37:55;;;;;;;17.88;2.40;;;;;;;;;;5042549;28;20613;-68
2022/01/03 02:40:22;;;;;;;22.00;3.15;;;;;;;;;;5042440;28;20189;-68
2022/01/03 02:42:48;;;;;;;20.23;2.67;;;;;;;;;;5045216;28;20193;-68
2022/01/03 02:45:23;;;;;;;22.40;3.15;;;;;;;;;;5039237;28;20177;-68
2022/01/03 02:47:53;;;;;;;25.02;2.88;;;;;;;;;;5043340;28;20180;-67
2022/01/03 02:50:20;;;;;;;14.77;3.28;;;;;;;;;;5042145;28;20700;-68
2022/01/03 02:52:46;;;;;;;19.55;3.00;;;;;;;;;;5042896;28;20196;-67
2022/01/03 02:55:12;;;;;;;22.45;3.80;;;;;;;;;;5042878;28;20362;-68
2022/01/03 02:57:43;;;;;;;21.88;3.40;;;;;;;;;;5041091;28;20272;-68
2022/01/03 03:00:14;;;;;;;19.20;3.03;;;;;;;;;;5040124;28;20193;-68
2022/01/03 03:02:40;;;;;;;19.80;3.20;;;;;;;;;;5041778;28;20257;-67
2022/01/03 03:05:07;;;;;;;23.60;3.53;;;;;;;;;;5046496;28;20264;-68
2022/01/03 03:07:34;;;;;;;19.92;3.10;;;;;;;;;;5040479;28;20273;-68
2022/01/03 03:10:00;;;;;;;23.73;2.92;;;;;;;;;;5037078;28;21397;-68
2022/01/03 03:12:27;;;;;;;30.40;4.00;;;;;;;;;;5045235;28;20574;-67
2022/01/03 03:14:53;;;;;;;22.23;3.17;;;;;;;;;;5048174;28;20188;-69
2022/01/03 03:17:18;;;;;;;16.67;2.85;;;;;;;;;;5046430;28;20197;-68
2022/01/03 03:19:56;;;;;;;19.73;3.70;;;;;;;;;;5046983;28;20194;-67
2022/01/03 03:22:27;;;;;;;20.40;4.15;;;;;;;;;;5048998;28;20705;-67
2022/01/03 03:25:01;;;;;;;29.13;3.60;;;;;;;;;;5044667;28;20284;-68
2022/01/03 03:27:26;;;;;;;25.38;4.28;;;;;;;;;;5041278;28;20234;-67
2022/01/03 03:29:51;;;;;;;17.73;3.45;;;;;;;;;;5045337;28;20181;-68
2022/01/03 03:32:18;;;;;;;23.63;3.22;;;;;;;;;;5044296;28;20193;-68
2022/01/03 03:34:46;;;;;;;21.42;3.40;;;;;;;;;;5039627;28;20707;-68
2022/01/03 03:37:12;;;;;;;22.70;4.00;;;;;;;;;;5050028;28;20247;-68
2022/01/03 03:39:39;;;;;;;21.45;4.03;;;;;;;;;;5040248;28;20292;-67
2022/01/03 03:42:07;;;;;;;21.08;3.38;;;;;;;;;;5047776;28;20193;-68
2022/01/03 03:44:34;;;;;;;23.13;3.67;;;;;;;;;;5040191;28;20198;-68
2022/01/03 03:47:00;;;;;;;34.03;3.40;;;;;;;;;;5044808;28;20186;-68
2022/01/03 03:49:26;;;;;;;23.63;3.45;;;;;;;;;;5042538;28;20185;-68
2022/01/03 03:51:51;;;;;;;21.83;2.63;;;;;;;;;;5046262;28;20195;-67
2022/01/03 03:54:17;;;;;;;24.13;3.15;;;;;;;;;;5038052;28;20216;-67
2022/01/03 03:56:42;;;;;;;25.05;4.57;;;;;;;;;;5046558;28;20233;-68
2022/01/03 03:59:08;;;;;;;20.35;3.17;;;;;;;;;;5040854;28;20280;-68
2022/01/03 04:01:33;;;;;;;20.10;3.88;;;;;;;;;;5042848;28;20197;-68
2022/01/03 04:03:58;;;;;;;27.00;3.65;;;;;;;;;;5037117;28;20276;-68
2022/01/03 04:06:24;;;;;;;18.30;3.78;;;;;;;;;;5037862;28;20209;-68
2022/01/03 04:08:49;;;;;;;22.58;4.10;;;;;;;;;;5045385;28;20197;-68
2022/01/03 04:11:15;;;;;;;23.40;3.50;;;;;;;;;;5039988;28;20181;-68
2022/01/03 04:13:40;;;;;;;28.10;3.97;;;;;;;;;;5047010;28;20205;-68
2022/01/03 04:16:06;;;;;;;22.15;3.22;;;;;;;;;;5045065;28;20244;-68
2022/01/03 04:18:32;;;;;;;22.55;3.10;;;;;;;;;;5050581;28;20656;-68
2022/01/03 04:20:58;;;;;;;27.38;3.53;;;;;;;;;;5036417;28;20277;-67
2022/01/03 04:23:23;;;;;;;31.38;4.97;;;;;;;;;;5047978;28;20276;-67
2022/01/03 04:25:50;;;;;;;25.85;4.07;;;;;;;;;;5042585;28;20208;-67
2022/01/03 04:28:16;;;;;;;23.33;3.70;;;;;;;;;;5043906;28;20178;-68
2022/01/03 04:30:41;;;;;;;24.98;3.65;;;;;;;;;;5046224;28;20197;-68
2022/01/03 04:33:07;;;;;;;31.58;3.67;;;;;;;;;;5046065;28;20548;-67
2022/01/03 04:35:32;;;;;;;27.75;4.28;;;;;;;;;;5045139;28;20268;-68
2022/01/03 04:37:57;;;;;;;30.67;4.07;;;;;;;;;;5041921;28;20285;-68
2022/01/03 04:40:22;;;;;;;22.30;3.55;;;;;;;;;;5046924;28;20193;-68
2022/01/03 04:42:48;;;;;;;29.00;5.03;;;;;;;;;;5046132;28;20201;-68
2022/01/03 04:45:13;;;;;;;27.55;4.47;;;;;;;;;;5044629;28;20193;-68
2022/01/03 04:47:39;;;;;;;21.00;3.40;;;;;;;;;;5046088;28;20181;-69
2022/01/03 04:50:04;;;;;;;23.55;3.85;;;;;;;;;;5047145;28;20189;-67
2022/01/03 04:52:30;;;;;;;29.05;4.53;;;;;;;;;;5043963;28;20188;-67
2022/01/03 04:54:56;;;;;;;23.88;3.70;;;;;;;;;;5044417;28;20351;-68
2022/01/03 04:57:21;;;;;;;25.77;3.83;;;;;;;;;;5040927;28;20604;-68
2022/01/03 04:59:46;;;;;;;25.98;3.50;;;;;;;;;;5045969;28;20242;-68
2022/01/03 05:02:12;;;;;;;22.80;3.55;;;;;;;;;;5042748;28;20181;-68
2022/01/03 05:04:37;;;;;;;27.15;5.15;;;;;;;;;;5045614;28;20670;-68
2022/01/03 05:07:03;;;;;;;26.63;3.60;;;;;;;;;;5041696;28;20590;-68
2022/01/03 05:09:28;;;;;;;27.25;4.00;;;;;;;;;;5044475;28;20691;-67
2022/01/03 05:11:55;;;;;;;32.33;4.30;;;;;;;;;;5043457;28;20198;-67
2022/01/03 05:14:20;;;;;;;29.48;4.95;;;;;;;;;;5042387;28;20189;-68
2022/01/03 05:16:45;;;;;;;31.00;4.05;;;;;;;;;;5038888;28;20722;-68
2022/01/03 05:19:11;;;;;;;23.98;3.50;;;;;;;;;;5044316;28;20200;-67
2022/01/03 05:21:36;;;;;;;26.40;3.40;;;;;;;;;;5045685;28;20185;-67
2022/01/03 05:24:01;;;;;;;24.92;3.25;;;;;;;;;;5041053;28;20221;-68
2022/01/03 05:26:27;;;;;;;30.77;3.70;;;;;;;;;;5043675;28;20196;-68
2022/01/03 05:28:52;;;;;;;21.02;4.32;;;;;;;;;;5045113;28;20267;-68
2022/01/03 05:31:18;;;;;;;21.90;3.75;;;;;;;;;;5042822;28;20275;-68
2022/01/03 05:33:43;;;;;;;29.55;3.50;;;;;;;;;;5037742;28;20587;-68
2022/01/03 05:36:09;;;;;;;28.00;3.90;;;;;;;;;;5046081;28;20228;-68
2022/01/03 05:38:34;;;;;;;29.80;3.80;;;;;;;;;;5042109;28;20298;-68
2022/01/03 05:41:00;;;;;;;24.40;4.07;;;;;;;;;;5043424;28;20251;-68
2022/01/03 05:43:25;;;;;;;36.95;3.75;;;;;;;;;;5039575;28;20200;-68
2022/01/03 05:45:50;;;;;;;27.73;3.72;;;;;;;;;;5041958;28;20181;-68
2022/01/03 05:48:16;;;;;;;25.65;4.82;;;;;;;;;;5035993;28;20268;-68
2022/01/03 05:50:41;;;;;;;29.58;4.07;;;;;;;;;;5041628;28;20197;-68
2022/01/03 05:53:06;;;;;;;30.33;4.03;;;;;;;;;;5045005;28;20189;-68
2022/01/03 05:55:32;;;;;;;27.27;4.15;;;;;;;;;;5038714;28;20306;-68
2022/01/03 05:57:57;;;;;;;26.48;3.70;;;;;;;;;;5038619;28;20224;-67
2022/01/03 06:00:25;;;;;;;24.70;3.63;;;;;;;;;;5039324;28;20192;-67
2022/01/03 06:02:55;;;;;;;26.85;4.47;;;;;;;;;;5041577;28;20255;-68
2022/01/03 06:05:33;;;;;;;27.33;4.07;;;;;;;;;;5033957;28;20194;-68
2022/01/03 06:07:59;;;;;;;30.63;4.95;;;;;;;;;;5041220;28;20196;-67
2022/01/03 06:10:24;;;;;;;34.15;4.00;;;;;;;;;;5038998;28;20238;-67
2022/01/03 06:12:49;;;;;;;23.05;3.95;;;;;;;;;;5042759;28;20275;-68
2022/01/03 06:15:15;;;;;;;24.90;4.22;;;;;;;;;;5039386;28;20633;-69
2022/01/03 06:17:42;;;;;;;28.98;3.70;;;;;;;;;;5041252;28;20181;-68
2022/01/03 06:20:07;;;;;;;32.60;4.07;;;;;;;;;;5043383;28;20185;-68
2022/01/03 06:22:33;;;;;;;24.30;4.03;;;;;;;;;;5039591;28;20189;-68
2022/01/03 06:24:58;;;;;;;30.73;4.35;;;;;;;;;;5035825;28;20264;-68
2022/01/03 06:27:23;;;;;;;23.65;3.95;;;;;;;;;;5039845;28;20263;-68
2022/01/03 06:29:49;;;;;;;33.00;4.95;;;;;;;;;;5037590;28;20188;-68
2022/01/03 06:32:14;;;;;;;36.33;5.22;;;;;;;;;;5039649;28;20595;-67
2022/01/03 06:34:40;;;;;;;30.73;4.20;;;;;;;;;;5046425;28;20190;-67
2022/01/03 06:37:05;;;;;;;30.60;4.72;;;;;;;;;;5044440;28;20563;-67
2022/01/03 06:39:30;;;;;;;29.00;3.85;;;;;;;;;;5047568;28;20209;-67
2022/01/03 06:41:56;;;;;;;18.92;3.83;;;;;;;;;;5039450;28;20177;-67
2022/01/03 06:44:21;;;;;;;33.20;4.25;;;;;;;;;;5042976;28;20185;-68
2022/01/03 06:46:47;;;;;;;30.23;3.85;;;;;;;;;;5040273;28;20667;-67
2022/01/03 06:49:13;;;;;;;21.67;3.50;;;;;;;;;;5040235;28;20193;-67
2022/01/03 06:51:39;;;;;;;26.50;4.38;;;;;;;;;;5039186;28;20187;-68
2022/01/03 06:54:06;;;;;;;21.85;4.35;;;;;;;;;;5048415;28;20196;-67
2022/01/03 06:56:32;;;;;;;28.02;3.58;;;;;;;;;;5045664;28;20295;-67
2022/01/03 06:58:57;;;;;;;23.02;4.07;;;;;;;;;;5046276;28;20186;-67
2022/01/03 07:01:23;;;;;;;23.58;4.50;;;;;;;;;;5041461;28;20194;-67
2022/01/03 07:03:48;;;;;;;27.00;4.18;;;;;;;;;;5045748;28;20186;-67
2022/01/03 07:06:13;;;;;;;26.95;4.30;;;;;;;;;;5045410;28;20174;-67
2022/01/03 07:08:39;;;;;;;27.50;3.83;;;;;;;;;;5046681;28;20264;-67
2022/01/03 07:11:04;;;;;;;32.40;4.47;;;;;;;;;;5044417;28;20552;-68
2022/01/03 07:13:39;;;;;;;23.80;3.90;;;;;;;;;;5041782;28;20184;-68
2022/01/03 07:18:58;;;;;;;31.88;3.97;;;;;;;;;;5045377;28;20274;-68
2022/01/03 07:21:25;;;;;;;29.83;4.30;;;;;;;;;;5045847;28;20188;-68
2022/01/03 07:23:51;;;;;;;32.10;4.40;;;;;;;;;;5039879;28;20599;-68
2022/01/03 07:26:16;;;;;;;33.22;4.75;;;;;;;;;;5048816;28;20844;-67
2022/01/03 07:28:42;;;;;;;24.63;3.80;;;;;;;;;;5039583;28;20190;-67
2022/01/03 07:31:07;;;;;;;29.42;4.05;;;;;;;;;;5044210;28;20726;-67
2022/01/03 07:33:33;;;;;;;22.30;3.97;;;;;;;;;;5048744;28;20185;-67
2022/01/03 07:35:58;;;;;;;24.83;3.95;;;;;;;;;;5046305;28;20553;-67
2022/01/03 07:38:23;;;;;;;28.48;4.22;;;;;;;;;;5048435;28;20644;-67
2022/01/03 07:40:49;;;;;;;24.23;4.03;;;;;;;;;;5045037;28;20296;-68
2022/01/03 07:43:14;;;;;;;20.55;3.78;;;;;;;;;;5042121;28;20280;-68
2022/01/03 07:45:40;;;;;;;26.02;3.80;;;;;;;;;;5042076;28;20184;-68
2022/01/03 07:48:05;;;;;;;23.42;3.95;;;;;;;;;;5042756;28;20678;-68
2022/01/03 07:50:31;;;;;;;24.45;3.75;;;;;;;;;;5043926;28;20245;-68
2022/01/03 07:53:00;;;;;;;26.85;3.78;;;;;;;;;;5043975;28;20184;-68
2022/01/03 07:55:26;;;;;;;21.23;3.13;;;;;;;;;;5045688;28;20708;-68
2022/01/03 07:57:53;;;;;;;18.80;3.30;;;;;;;;;;5043098;28;20204;-68
2022/01/03 08:00:18;;;;;;;24.15;3.75;;;;;;;;;;5042727;28;20257;-68
2022/01/03 08:02:45;;;;;;;22.75;4.22;;;;;;;;;;5044058;28;20289;-68
2022/01/03 08:05:14;;;;;;;22.50;3.30;;;;;;;;;;5045468;28;20215;-67
2022/01/03 08:07:40;;;;;;;21.00;3.47;;;;;;;;;;5045931;28;20256;-68
2022/01/03 08:10:07;;;;;;;31.10;4.00;;;;;;;;;;5045464;28;20182;-67
2022/01/03 08:12:33;;;;;;;25.80;4.25;;;;;;;;;;5041162;28;20636;-68
2022/01/03 08:14:58;;;;;;;24.42;3.88;;;;;;;;;;5043121;28;20240;-68
2022/01/03 08:17:24;;;;;;;21.73;3.33;;;;;;;;;;5044619;28;20706;-68
2022/01/03 08:19:49;;;;;;;23.95;3.30;;;;;;;;;;5045180;28;20357;-68
2022/01/03 08:22:15;;;;;;;16.33;2.95;;;;;;;;;;5042352;28;20197;-68
2022/01/03 08:24:40;;;;;;;22.05;3.42;;;;;;;;;;5048844;28;20272;-67
2022/01/03 08:27:06;;;;;;;21.77;4.03;;;;;;;;;;5042046;28;20209;-67
2022/01/03 08:29:32;;;;;;;19.00;3.50;;;;;;;;;;5043980;28;20189;-68
2022/01/03 08:31:57;;;;;;;24.67;4.35;;;;;;;;;;5045778;28;20575;-68
2022/01/03 08:34:22;;;;;;;25.40;3.80;;;;;;;;;;5046409;28;20256;-68
2022/01/03 08:36:48;;;;;;;32.08;4.32;;;;;;;;;;5023301;28;20557;-68
2022/01/03 08:39:13;;;;;;;30.15;3.25;;;;;;;;;;5043071;28;20193;-68
2022/01/03 08:41:39;;;;;;;28.70;3.65;;;;;;;;;;5045634;28;20188;-68
2022/01/03 08:44:05;;;;;;;19.55;3.65;;;;;;;;;;5042374;28;20242;-67
2022/01/03 08:46:30;;;;;;;22.20;3.80;;;;;;;;;;5042861;28;20177;-67
2022/01/03 08:48:56;;;;;;;22.45;3.53;;;;;;;;;;5042651;28;20193;-68
2022/01/03 08:51:22;;;;;;;19.50;3.78;;;;;;;;;;5042429;28;20185;-68
2022/01/03 08:53:47;;;;;;;22.70;3.97;;;;;;;;;;5040383;28;20198;-68
2022/01/03 08:56:13;;;;;;;16.15;3.03;;;;;;;;;;5042301;28;20256;-68
2022/01/03 08:58:38;;;;;;;21.95;3.33;;;;;;;;;;5042103;28;20550;-68
2022/01/03 09:01:03;;;;;;;16.42;3.35;;;;;;;;;;5040429;28;20189;-68
2022/01/03 09:03:29;;;;;;;20.05;3.08;;;;;;;;;;5040427;28;20200;-67
2022/01/03 09:05:54;;;;;;;19.38;3.67;;;;;;;;;;5045159;28;20193;-67
2022/01/03 09:08:22;;;;;;;23.63;3.13;;;;;;;;;;5042278;28;20188;-68
2022/01/03 09:10:48;;;;;;;22.77;3.35;;;;;;;;;;5042453;28;20585;-69
2022/01/03 09:13:14;;;;;;;14.57;3.15;;;;;;;;;;5034812;28;20185;-68
2022/01/03 09:15:44;;;;;;;21.10;2.97;;;;;;;;;;5043440;28;20212;-68
2022/01/03 09:18:10;;;;;;;20.10;3.03;;;;;;;;;;5041238;28;20169;-68
2022/01/03 09:20:36;;;;;;;17.67;3.20;;;;;;;;;;5041326;28;20197;-68
2022/01/03 09:23:09;;;;;;;34.05;5.35;;;;;;;;;;5041008;28;20211;-69
2022/01/03 09:30:51;;;;;;;24.45;3.10;;;;;;;;;;5040406;28;20236;-68
2022/01/03 09:33:16;;;;;;;19.00;3.42;;;;;;;;;;5045053;28;20185;-68
2022/01/03 09:35:43;;;;;;;19.80;3.53;;;;;;;;;;5042126;28;20236;-68
2022/01/03 09:38:09;;;;;;;25.30;3.33;;;;;;;;;;5045073;28;20193;-69
2022/01/03 09:40:35;;;;;;;17.70;2.90;;;;;;;;;;5040849;28;20200;-68
2022/01/03 09:43:01;;;;;;;18.15;3.42;;;;;;;;;;5044422;28;20196;-68
2022/01/03 09:45:32;;;;;;;19.55;2.75;;;;;;;;;;5042218;28;20383;-67
2022/01/03 09:48:00;;;;;;;20.30;2.92;;;;;;;;;;5040232;28;20182;-67
2022/01/03 09:50:25;;;;;;;19.73;2.92;;;;;;;;;;5043941;28;20177;-68
2022/01/03 09:52:51;;;;;;;20.58;3.38;;;;;;;;;;5041925;28;20204;-68
2022/01/03 09:55:19;;;;;;;18.27;2.60;;;;;;;;;;5043688;28;20678;-68
2022/01/03 09:57:46;;;;;;;19.27;3.45;;;;;;;;;;5042227;28;20223;-68
2022/01/03 10:00:24;;;;;;;16.60;2.97;;;;;;;;;;5042929;28;20544;-69
2022/01/03 10:02:51;;;;;;;14.77;2.72;;;;;;;;;;5038252;28;20276;-68
2022/01/03 10:05:17;;;;;;;27.08;4.20;;;;;;;;;;5043920;28;20265;-68
2022/01/03 10:07:43;;;;;;;18.48;3.22;;;;;;;;;;5042277;28;20188;-68
2022/01/03 10:10:09;;;;;;;15.35;2.85;;;;;;;;;;5044179;28;20181;-68
2022/01/03 10:12:36;;;;;;;21.23;3.58;;;;;;;;;;5043991;28;20185;-68
2022/01/03 10:15:05;;;;;;;21.25;3.95;;;;;;;;;;5045925;28;20542;-69
2022/01/03 10:17:34;;;;;;;14.25;3.63;;;;;;;;;;5047434;28;20280;-69
2022/01/03 10:20:00;;;;;;;24.27;3.28;;;;;;;;;;4349199;28;10000733;-68
2022/01/03 10:22:27;;;;;;;19.05;3.22;;;;;;;;;;5040853;28;20189;-68
2022/01/03 10:24:54;;;;;;;20.05;3.20;;;;;;;;;;5043358;28;20204;-68
2022/01/03 10:27:42;;;;;;;27.83;4.10;;;;;;;;;;5043591;28;20185;-69
2022/01/03 10:30:08;;;;;;;19.60;3.35;;;;;;;;;;5043306;28;20259;-69
2022/01/03 10:32:34;;;;;;;22.40;3.33;;;;;;;;;;5044904;28;20216;-68
2022/01/03 10:35:16;;;;;;;17.35;3.80;;;;;;;;;;5042647;28;20234;-67
2022/01/03 10:37:42;;;;;;;20.95;2.85;;;;;;;;;;5043976;28;20217;-68
2022/01/03 10:40:20;;;;;;;20.58;3.13;;;;;;;;;;5040382;28;20236;-68
2022/01/03 10:42:46;;;;;;;21.38;3.45;;;;;;;;;;5039359;28;20601;-68
2022/01/03 10:45:12;;;;;;;21.85;3.08;;;;;;;;;;5044603;28;20192;-68
2022/01/03 10:47:39;;;;;;;23.30;3.80;;;;;;;;;;5042579;28;20680;-68
2022/01/03 10:50:16;;;;;;;25.02;3.60;;;;;;;;;;5035699;28;20191;-68
2022/01/03 10:52:42;;;;;;;19.00;3.15;;;;;;;;;;5044664;28;20242;-68
2022/01/03 10:55:19;;;;;;;22.35;3.05;;;;;;;;;;5044004;28;20319;-68
2022/01/03 10:57:57;;;;;;;22.38;2.88;;;;;;;;;;5041408;28;20316;-68
2022/01/03 11:00:29;;;;;;;18.52;3.17;;;;;;;;;;5047840;28;20190;-67
2022/01/03 11:03:21;;;;;;;17.38;3.30;;;;;;;;;;5041721;28;20620;-67
2022/01/03 11:05:54;;;;;;;14.93;2.92;;;;;;;;;;5039828;28;20646;-68
2022/01/03 11:11:09;;;;;;;18.13;2.90;;;;;;;;;;5042538;28;20253;-68
2022/01/03 11:13:38;;;;;;;15.63;2.65;;;;;;;;;;5038904;28;20280;-68
2022/01/03 11:16:06;;;;;;;26.02;4.20;;;;;;;;;;5040867;28;20269;-68
2022/01/03 11:18:33;;;;;;;19.35;3.33;;;;;;;;;;5049078;28;20203;-68
2022/01/03 11:21:09;;;;;;;23.30;3.53;;;;;;;;;;5039982;28;20272;-68
2022/01/03 11:23:35;;;;;;;21.85;2.95;;;;;;;;;;5045492;28;20276;-68
2022/01/03 11:26:13;;;;;;;18.55;2.95;;;;;;;;;;5041399;28;20177;-68
2022/01/03 11:28:42;;;;;;;22.83;3.47;;;;;;;;;;5046324;28;20295;-68
2022/01/03 11:31:08;;;;;;;28.23;3.63;;;;;;;;;;5046240;28;20628;-68
2022/01/03 11:33:35;;;;;;;20.73;3.67;;;;;;;;;;5045349;28;20290;-68
2022/01/03 11:36:02;;;;;;;23.25;3.20;;;;;;;;;;5044935;28;20209;-67
2022/01/03 11:38:30;;;;;;;20.98;3.28;;;;;;;;;;5048306;28;20710;-68
2022/01/03 11:41:00;;;;;;;24.38;3.70;;;;;;;;;;5046525;28;20185;-69
2022/01/03 11:43:27;;;;;;;21.90;3.03;;;;;;;;;;5041077;28;21425;-68
2022/01/03 11:45:53;;;;;;;22.77;3.08;;;;;;;;;;5051408;28;20173;-68
2022/01/03 11:48:18;;;;;;;22.00;3.63;;;;;;;;;;5043113;28;20195;-68
2022/01/03 11:50:44;;;;;;;23.42;3.03;;;;;;;;;;5049086;28;20187;-68
2022/01/03 11:53:09;;;;;;;23.20;3.35;;;;;;;;;;5039560;28;20194;-68
2022/01/03 11:55:36;;;;;;;20.75;3.50;;;;;;;;;;5045273;28;20228;-68
2022/01/03 12:03:37;;;;;;;21.08;3.42;;;;;;;;;;5044282;28;20204;-68
2022/01/03 12:06:03;;;;;;;28.70;3.47;;;;;;;;;;5044592;28;20181;-68
2022/01/03 12:08:32;;;;;;;23.02;3.47;;;;;;;;;;5042945;28;20189;-69
2022/01/03 12:11:00;;;;;;;24.25;3.67;;;;;;;;;;5042967;28;20200;-68
2022/01/03 12:13:58;;;;;;;26.40;3.63;;;;;;;;;;5040059;28;20192;-68
2022/01/03 12:16:39;;;;;;;18.70;3.65;;;;;;;;;;5045486;28;20186;-68
2022/01/03 12:19:09;;;;;;;18.15;3.10;;;;;;;;;;5044880;28;20189;-68
2022/01/03 12:22:13;;;;;;;21.58;4.10;;;;;;;;;;5038819;28;20185;-68
2022/01/03 12:24:43;;;;;;;26.27;3.80;;;;;;;;;;5042570;28;20205;-68
2022/01/03 12:27:12;;;;;;;17.85;3.60;;;;;;;;;;5044913;28;20275;-67
2022/01/03 12:29:52;;;;;;;24.08;3.95;;;;;;;;;;5044130;28;20205;-68
2022/01/03 12:32:18;;;;;;;21.50;3.40;;;;;;;;;;5045395;28;20648;-68
2022/01/03 12:34:44;;;;;;;22.50;4.38;;;;;;;;;;5045345;28;20330;-68
2022/01/03 12:37:21;;;;;;;21.77;3.53;;;;;;;;;;5045771;28;20205;-68
2022/01/03 12:40:01;;;;;;;20.58;3.47;;;;;;;;;;5041115;28;20228;-68
2022/01/03 12:42:51;;;;;;;28.48;3.80;;;;;;;;;;4345305;28;10000854;-68
2022/01/03 12:45:29;;;;;;;20.70;3.30;;;;;;;;;;5042128;28;20808;-68
2022/01/03 12:48:15;;;;;;;18.90;3.83;;;;;;;;;;5042538;28;20243;-68
2022/01/03 12:51:05;;;;;;;20.67;3.75;;;;;;;;;;5041120;28;20296;-69
2022/01/03 12:53:30;;;;;;;15.38;3.25;;;;;;;;;;5039868;28;20539;-68
2022/01/03 12:56:03;;;;;;;20.90;2.97;;;;;;;;;;5046873;28;20232;-68
2022/01/03 12:58:28;;;;;;;18.60;3.53;;;;;;;;;;5041233;28;20199;-67
2022/01/03 13:00:59;;;;;;;16.63;3.58;;;;;;;;;;5040312;28;20193;-67
2022/01/03 13:03:37;;;;;;;24.67;3.08;;;;;;;;;;5039559;28;20220;-68
2022/01/03 13:06:05;;;;;;;19.92;3.33;;;;;;;;;;5036162;28;20196;-68
2022/01/03 13:08:31;;;;;;;18.35;3.50;;;;;;;;;;5038700;28;20220;-68
2022/01/03 13:11:01;;;;;;;24.15;3.17;;;;;;;;;;5044813;28;20180;-69
2022/01/03 13:13:29;;;;;;;20.48;2.92;;;;;;;;;;5042210;28;20181;-68
2022/01/03 13:15:58;;;;;;;18.45;3.70;;;;;;;;;;5044765;28;20261;-68
2022/01/03 13:18:24;;;;;;;22.48;3.80;;;;;;;;;;5039326;28;20186;-68
2022/01/03 13:20:56;;;;;;;24.80;3.25;;;;;;;;;;5046760;28;20197;-68
2022/01/03 13:23:24;;;;;;;25.02;3.35;;;;;;;;;;5040692;28;20200;-69
2022/01/03 13:25:50;;;;;;;18.73;3.42;;;;;;;;;;5043218;28;20177;-67
2022/01/03 13:28:15;;;;;;;17.23;3.03;;;;;;;;;;5041966;28;20181;-68
2022/01/03 13:31:02;;;;;;;17.65;2.88;;;;;;;;;;5039580;28;20289;-67
2022/01/03 13:33:27;;;;;;;26.73;4.43;;;;;;;;;;5043533;28;20190;-67
2022/01/03 13:36:00;;;;;;;20.95;3.13;;;;;;;;;;5043332;28;20201;-68
2022/01/03 13:38:28;;;;;;;25.27;4.43;;;;;;;;;;5040256;28;20270;-68
2022/01/03 13:40:53;;;;;;;24.17;4.57;;;;;;;;;;5043162;28;20193;-68
2022/01/03 13:43:20;;;;;;;18.73;3.05;;;;;;;;;;5042019;28;20268;-68
2022/01/03 13:51:08;;;;;;;20.75;4.45;;;;;;;;;;5043323;28;20358;-68
2022/01/03 13:53:33;;;;;;;22.25;2.92;;;;;;;;;;5040457;28;20188;-68
2022/01/03 13:55:59;;;;;;;19.80;3.58;;;;;;;;;;5046008;28;20248;-68
2022/01/03 13:58:26;;;;;;;19.88;3.15;;;;;;;;;;5040277;28;20218;-68
2022/01/03 14:00:58;;;;;;;22.35;3.65;;;;;;;;;;5042644;28;22173;-68
2022/01/03 14:03:29;;;;;;;19.33;2.70;;;;;;;;;;5041129;28;20295;-68
2022/01/03 14:06:25;;;;;;;21.80;3.25;;;;;;;;;;5028529;28;20663;-68
2022/01/03 14:08:52;;;;;;;16.52;2.90;;;;;;;;;;5027884;28;20186;-68
2022/01/03 14:11:26;;;;;;;22.70;3.53;;;;;;;;;;5032610;28;20199;-68
2022/01/03 14:13:52;;;;;;;16.60;2.97;;;;;;;;;;5031821;28;20258;-68
2022/01/03 14:16:17;;;;;;;18.42;2.78;;;;;;;;;;5033368;28;20213;-68
2022/01/03 14:18:46;;;;;;;16.55;2.88;;;;;;;;;;5031343;28;20249;-67
2022/01/03 14:21:17;;;;;;;19.15;2.97;;;;;;;;;;5031312;28;20805;-67
2022/01/03 14:23:51;;;;;;;17.88;3.10;;;;;;;;;;5031878;28;20555;-68
2022/01/03 14:26:20;;;;;;;14.48;2.67;;;;;;;;;;5029105;28;20259;-68
2022/01/03 14:28:46;;;;;;;21.88;3.20;;;;;;;;;;5026357;28;20556;-69
2022/01/03 14:31:11;;;;;;;18.48;3.13;;;;;;;;;;4332849;28;10000730;-68
2022/01/03 14:33:40;;;;;;;20.05;4.00;;;;;;;;;;5023510;28;20196;-68
2022/01/03 14:36:18;;;;;;;17.55;3.65;;;;;;;;;;5021010;28;20197;-68
2022/01/03 14:38:46;;;;;;;14.73;2.67;;;;;;;;;;5024904;28;20247;-68
2022/01/03 14:41:26;;;;;;;19.45;2.88;;;;;;;;;;5023785;28;20247;-68
2022/01/03 14:43:54;;;;;;;17.13;3.17;;;;;;;;;;5022772;28;20549;-68
2022/01/03 14:46:35;;;;;;;18.23;3.17;;;;;;;;;;5027121;28;20189;-68
2022/01/03 14:49:02;;;;;;;18.48;3.33;;;;;;;;;;5029868;28;20533;-68
2022/01/03 14:51:34;;;;;;;15.70;2.95;;;;;;;;;;5030452;28;20629;-68
2022/01/03 14:54:15;;;;;;;14.82;2.63;;;;;;;;;;5027530;28;20199;-68
2022/01/03 14:56:41;;;;;;;18.02;2.88;;;;;;;;;;5028286;28;20241;-67
2022/01/03 14:59:12;;;;;;;17.80;2.90;;;;;;;;;;5032738;28;20704;-69
2022/01/03 15:01:38;;;;;;;13.80;3.17;;;;;;;;;;5029438;28;20197;-68